createdAt,value
2023-05-20T00:00:01.894Z,31.12
2023-05-20T00:03:02.663Z,31.22
2023-05-20T00:06:03.603Z,30.97
2023-05-20T00:09:06.616Z,31.19
2023-05-20T00:12:07.583Z,31.44
2023-05-20T00:15:08.619Z,31.19
2023-05-20T00:18:09.659Z,31.24
2023-05-20T00:21:10.603Z,31.30
2023-05-20T00:24:11.593Z,31.34
2023-05-20T00:27:12.755Z,30.99
2023-05-20T00:30:13.559Z,31.13
2023-05-20T00:33:14.644Z,31.39
2023-05-20T00:36:15.564Z,31.31
2023-05-20T00:39:16.790Z,31.16
2023-05-20T00:42:17.572Z,31.12
2023-05-20T00:45:18.647Z,31.19
2023-05-20T00:48:19.574Z,30.94
2023-05-20T00:51:20.630Z,31.11
2023-05-20T00:54:21.574Z,31.08
2023-05-20T00:57:22.620Z,31.07
2023-05-20T01:00:23.573Z,30.88
2023-05-20T01:03:24.851Z,31.02
2023-05-20T01:06:25.578Z,31.04
2023-05-20T01:09:26.618Z,30.96
2023-05-20T01:12:30.621Z,30.98
2023-05-20T01:15:31.665Z,31.01
2023-05-20T01:18:32.559Z,31.09
2023-05-20T01:21:33.582Z,30.92
2023-05-20T01:24:34.558Z,31.08
2023-05-20T01:27:36.622Z,31.07
2023-05-20T01:30:41.587Z,31.16
2023-05-20T01:33:42.607Z,30.77
2023-05-20T01:36:44.558Z,31.25
2023-05-20T01:39:49.726Z,30.80
2023-05-20T01:42:52.581Z,30.96
2023-05-20T01:45:55.625Z,31.07
2023-05-20T01:48:56.562Z,30.91
2023-05-20T01:51:57.591Z,30.89
2023-05-20T01:54:58.570Z,31.06
2023-05-20T01:57:59.627Z,31.02
2023-05-20T02:01:00.595Z,31.01
2023-05-20T02:04:01.617Z,30.89
2023-05-20T02:07:02.562Z,30.85
2023-05-20T02:10:03.596Z,30.71
2023-05-20T02:13:04.566Z,30.96
2023-05-20T02:16:06.640Z,30.81
2023-05-20T02:19:08.652Z,30.99
2023-05-20T02:22:09.612Z,31.24
2023-05-20T02:25:10.545Z,31.00
2023-05-20T02:28:12.642Z,31.10
2023-05-20T02:31:13.587Z,30.92
2023-05-20T02:34:14.657Z,31.27
2023-05-20T02:37:15.557Z,31.31
2023-05-20T02:40:16.757Z,30.83
2023-05-20T02:43:17.552Z,31.00
2023-05-20T02:46:18.636Z,30.93
2023-05-20T02:49:19.586Z,30.66
2023-05-20T02:52:20.596Z,30.91
2023-05-20T02:55:21.551Z,31.09
2023-05-20T02:58:22.579Z,30.96
2023-05-20T03:01:23.667Z,31.15
2023-05-20T03:04:25.647Z,31.06
2023-05-20T03:07:28.579Z,30.97
2023-05-20T03:10:29.604Z,31.06
2023-05-20T03:13:30.571Z,31.16
2023-05-20T03:16:31.696Z,30.91
2023-05-20T03:19:32.562Z,31.06
2023-05-20T03:22:33.610Z,31.20
2023-05-20T03:25:35.675Z,31.00
2023-05-20T03:28:36.609Z,31.09
2023-05-20T03:31:37.552Z,31.25
2023-05-20T03:34:38.609Z,31.26
2023-05-20T03:37:39.569Z,31.04
2023-05-20T03:40:40.769Z,31.32
2023-05-20T03:43:41.580Z,31.02
2023-05-20T03:46:42.629Z,31.47
2023-05-20T03:49:43.536Z,31.17
2023-05-20T03:52:44.590Z,31.39
2023-05-20T03:55:48.567Z,31.21
2023-05-20T03:58:49.599Z,31.28
2023-05-20T04:01:50.623Z,31.39
2023-05-20T04:04:51.551Z,31.07
2023-05-20T04:07:52.533Z,31.06
2023-05-20T04:10:54.576Z,31.33
2023-05-20T04:13:55.552Z,31.42
2023-05-20T04:16:56.627Z,31.28
2023-05-20T04:19:57.554Z,31.37
2023-05-20T04:22:58.597Z,31.26
2023-05-20T04:25:59.545Z,31.32
2023-05-20T04:29:00.594Z,31.32
2023-05-20T04:32:05.577Z,31.33
2023-05-20T04:35:08.571Z,31.16
2023-05-20T04:38:12.563Z,31.09
2023-05-20T04:41:13.864Z,31.02
2023-05-20T04:44:14.541Z,31.01
2023-05-20T04:47:15.612Z,31.02
2023-05-20T04:50:19.515Z,31.16
2023-05-20T04:53:20.596Z,31.35
2023-05-20T04:56:21.527Z,31.22
2023-05-20T04:59:22.618Z,31.08
2023-05-20T05:02:23.521Z,31.21
2023-05-20T05:05:24.583Z,31.24
2023-05-20T05:08:25.531Z,31.43
2023-05-20T05:11:27.589Z,31.32
2023-05-20T05:14:28.524Z,31.32
2023-05-20T05:17:29.649Z,31.17
2023-05-20T05:20:30.529Z,31.29
2023-05-20T05:23:31.615Z,31.34
2023-05-20T05:26:33.541Z,31.38
2023-05-20T05:29:34.585Z,31.35
2023-05-20T05:32:35.667Z,31.28
2023-05-20T05:35:36.578Z,31.26
2023-05-20T05:38:37.541Z,31.20
2023-05-20T05:41:38.735Z,31.10
2023-05-20T05:44:39.540Z,30.92
2023-05-20T05:47:40.577Z,31.00
2023-05-20T05:50:42.539Z,31.08
2023-05-20T05:53:44.723Z,31.10
2023-05-20T05:56:45.535Z,31.06
2023-05-20T05:59:46.574Z,31.01
2023-05-20T06:02:47.736Z,31.23
2023-05-20T06:05:59.577Z,30.93
2023-05-20T06:09:01.555Z,31.10
2023-05-20T06:12:03.593Z,31.20
2023-05-20T06:15:04.636Z,31.33
2023-05-20T06:18:06.633Z,31.11
2023-05-20T06:21:10.529Z,30.99
2023-05-20T06:24:12.589Z,30.86
2023-05-20T06:27:13.564Z,30.86
2023-05-20T06:30:14.578Z,31.00
2023-05-20T06:33:15.510Z,30.95
2023-05-20T06:36:16.590Z,31.10
2023-05-20T06:39:20.511Z,31.19
2023-05-20T06:42:21.781Z,31.06
2023-05-20T06:45:32.656Z,31.26
2023-05-20T06:48:52.610Z,31.25
2023-05-20T06:51:53.514Z,31.13
2023-05-20T06:54:54.596Z,31.38
2023-05-20T06:57:55.516Z,31.38
2023-05-20T07:00:57.561Z,31.44
2023-05-20T07:03:58.527Z,31.26
2023-05-20T07:07:00.565Z,31.40
2023-05-20T07:10:01.540Z,31.20
2023-05-20T07:13:02.558Z,31.23
2023-05-20T07:16:03.557Z,31.25
2023-05-20T07:19:07.666Z,31.28
2023-05-20T07:22:08.536Z,31.16
2023-05-20T07:25:25.549Z,31.27
2023-05-20T07:28:29.550Z,31.29
2023-05-20T07:31:30.620Z,31.41
2023-05-20T07:34:31.540Z,31.50
2023-05-20T07:37:32.553Z,31.40
2023-05-20T07:40:34.715Z,31.14
2023-05-20T07:43:36.756Z,31.40
2023-05-20T07:46:37.549Z,31.43
2023-05-20T07:49:38.598Z,31.35
2023-05-20T07:55:43.551Z,31.36
2023-05-20T07:58:45.515Z,31.26
2023-05-20T08:01:47.584Z,31.27
2023-05-20T08:04:48.488Z,31.46
2023-05-20T08:07:49.573Z,31.51
2023-05-20T08:10:53.511Z,31.40
2023-05-20T08:13:55.557Z,31.47
2023-05-20T08:17:00.505Z,31.29
2023-05-20T08:20:01.590Z,31.24
2023-05-20T08:23:03.527Z,31.35
2023-05-20T08:26:08.569Z,31.41
2023-05-20T08:29:10.498Z,31.38
2023-05-20T08:32:11.569Z,31.44
2023-05-20T08:35:13.524Z,31.32
2023-05-20T08:38:14.539Z,31.54
2023-05-20T08:41:15.493Z,31.25
2023-05-20T08:44:18.743Z,31.27
2023-05-20T08:47:19.531Z,31.01
2023-05-20T08:50:20.594Z,31.11
2023-05-20T08:53:21.518Z,30.95
2023-05-20T08:56:23.662Z,31.23
2023-05-20T08:59:24.597Z,31.06
2023-05-20T09:02:25.561Z,31.04
2023-05-20T09:05:26.520Z,31.17
2023-05-20T09:08:27.553Z,31.39
2023-05-20T09:11:29.517Z,31.27
2023-05-20T09:14:33.559Z,31.20
2023-05-20T09:17:37.516Z,31.65
2023-05-20T09:20:39.545Z,31.53
2023-05-20T09:23:40.521Z,31.16
2023-05-20T09:26:41.584Z,31.06
2023-05-20T09:29:42.476Z,31.35
2023-05-20T09:32:43.643Z,31.27
2023-05-20T09:35:44.483Z,31.32
2023-05-20T09:38:47.670Z,31.57
2023-05-20T09:41:52.498Z,31.26
2023-05-20T09:44:53.705Z,31.36
2023-05-20T09:47:54.607Z,31.63
2023-05-20T09:50:55.552Z,31.50
2023-05-20T09:53:56.520Z,31.10
2023-05-20T09:56:57.551Z,31.11
2023-05-20T10:00:00.485Z,31.27
2023-05-20T10:03:06.564Z,31.36
2023-05-20T10:06:34.478Z,31.55
2023-05-20T10:09:53.559Z,31.31
2023-05-20T10:13:03.488Z,31.59
2023-05-20T10:16:04.548Z,31.14
2023-05-20T10:19:08.520Z,31.00
2023-05-20T10:22:13.545Z,31.08
2023-05-20T10:25:17.500Z,31.14
2023-05-20T10:28:21.532Z,31.16
2023-05-20T10:31:48.509Z,31.35
2023-05-20T10:34:58.539Z,31.29
2023-05-20T10:37:59.502Z,31.14
2023-05-20T10:41:00.531Z,31.13
2023-05-20T10:44:01.494Z,31.54
2023-05-20T10:50:19.505Z,31.11
2023-05-20T10:53:32.362Z,31.16
2023-05-20T10:56:34.504Z,31.14
2023-05-20T10:59:35.533Z,31.24
2023-05-20T11:02:36.562Z,31.45
2023-05-20T11:05:40.537Z,31.34
2023-05-20T11:08:37.586Z,31.63
2023-05-20T11:11:31.548Z,31.30
2023-05-20T11:14:32.479Z,31.30
2023-05-20T11:17:33.544Z,31.45
2023-05-20T11:20:34.595Z,31.72
2023-05-20T11:23:35.526Z,31.08
2023-05-20T11:26:36.491Z,31.01
2023-05-20T11:29:39.519Z,31.25
2023-05-20T11:32:40.570Z,30.75
2023-05-20T11:35:41.559Z,31.16
2023-05-20T11:38:43.476Z,31.24
2023-05-20T11:41:45.544Z,31.27
2023-05-20T11:44:46.492Z,31.32
2023-05-20T11:47:47.695Z,30.91
2023-05-20T11:50:52.491Z,31.54
2023-05-20T11:53:55.530Z,31.60
2023-05-20T11:56:57.480Z,31.85
2023-05-20T11:59:58.502Z,31.58
2023-05-20T12:02:59.564Z,31.63
2023-05-20T12:06:00.501Z,31.62
2023-05-20T12:09:01.483Z,31.14
2023-05-20T12:12:03.495Z,31.50
2023-05-20T12:15:04.610Z,31.54
2023-05-20T12:18:06.546Z,31.28
2023-05-20T12:21:07.488Z,31.05
2023-05-20T12:24:08.562Z,31.53
2023-05-20T12:27:10.512Z,30.88
2023-05-20T12:30:11.552Z,30.86
2023-05-20T12:33:12.492Z,31.32
2023-05-20T12:36:13.530Z,31.03
2023-05-20T12:39:14.453Z,31.01
2023-05-20T12:42:15.514Z,31.61
2023-05-20T12:45:16.464Z,31.63
2023-05-20T12:48:18.017Z,31.56
2023-05-20T12:51:18.450Z,31.23
2023-05-20T12:54:19.593Z,31.41
2023-05-20T12:57:20.464Z,31.32
2023-05-20T13:00:21.521Z,30.90
2023-05-20T13:03:22.527Z,31.74
2023-05-20T13:06:23.642Z,31.44
2023-05-20T13:09:24.473Z,31.01
2023-05-20T13:12:25.541Z,31.42
2023-05-20T13:15:35.457Z,31.79
2023-05-20T13:18:36.529Z,31.85
2023-05-20T13:21:38.515Z,31.57
2023-05-20T13:24:39.490Z,31.64
2023-05-20T13:27:40.582Z,31.41
2023-05-20T13:30:41.524Z,31.52
2023-05-20T13:33:42.484Z,31.39
2023-05-20T13:36:43.501Z,31.43
2023-05-20T13:39:44.483Z,31.36
2023-05-20T13:42:45.526Z,31.98
2023-05-20T13:45:46.461Z,31.68
2023-05-20T13:48:47.657Z,31.83
2023-05-20T13:51:48.471Z,32.12
2023-05-20T13:54:51.523Z,31.59
2023-05-20T13:57:52.449Z,32.16
2023-05-20T14:00:53.496Z,31.92
2023-05-20T14:03:54.529Z,31.86
2023-05-20T14:06:55.509Z,31.90
2023-05-20T14:09:56.451Z,31.98
2023-05-20T14:12:57.506Z,32.24
2023-05-20T14:15:58.481Z,32.14
2023-05-20T14:18:59.592Z,32.09
2023-05-20T14:22:00.445Z,31.85
2023-05-20T14:25:01.520Z,31.98
2023-05-20T14:28:03.457Z,31.77
2023-05-20T14:31:05.156Z,31.98
2023-05-20T14:34:07.457Z,31.65
2023-05-20T14:37:14.529Z,31.67
2023-05-20T14:40:15.450Z,31.70
2023-05-20T14:43:16.512Z,31.63
2023-05-20T14:46:17.463Z,31.72
2023-05-20T14:49:18.570Z,31.71
2023-05-20T14:52:19.458Z,31.82
2023-05-20T14:55:20.496Z,31.71
2023-05-20T14:58:21.454Z,31.70
2023-05-20T15:01:22.545Z,31.66
2023-05-20T15:04:23.462Z,31.72
2023-05-20T15:07:24.504Z,31.76
2023-05-20T15:10:25.468Z,31.47
2023-05-20T15:13:26.476Z,31.55
2023-05-20T15:16:30.487Z,31.62
2023-05-20T15:19:31.647Z,31.43
2023-05-20T15:22:32.455Z,31.72
2023-05-20T15:25:33.656Z,31.64
2023-05-20T15:28:34.464Z,31.51
2023-05-20T15:31:36.514Z,31.59
2023-05-20T15:34:37.449Z,31.61
2023-05-20T15:37:38.494Z,31.57
2023-05-20T15:40:39.456Z,31.56
2023-05-20T15:43:40.497Z,31.67
2023-05-20T15:46:41.545Z,31.40
2023-05-20T15:49:42.679Z,31.65
2023-05-20T15:52:43.486Z,31.56
2023-05-20T15:55:45.119Z,31.35
2023-05-20T15:58:46.437Z,31.48
2023-05-20T16:01:47.579Z,31.30
2023-05-20T16:04:48.480Z,31.53
2023-05-20T16:07:49.467Z,31.62
2023-05-20T16:10:50.454Z,31.59
2023-05-20T16:13:51.547Z,31.53
2023-05-20T16:16:52.447Z,31.45
2023-05-20T16:19:53.474Z,31.80
2023-05-20T16:22:54.451Z,31.40
2023-05-20T16:25:55.498Z,31.29
2023-05-20T16:28:56.456Z,31.62
2023-05-20T16:31:57.559Z,31.77
2023-05-20T16:34:58.445Z,31.95
2023-05-20T16:37:59.495Z,31.84
2023-05-20T16:41:00.457Z,31.87
2023-05-20T16:44:01.483Z,32.02
2023-05-20T16:47:02.430Z,31.74
2023-05-20T16:50:03.637Z,31.87
2023-05-20T16:53:05.422Z,31.80
2023-05-20T16:56:06.495Z,31.76
2023-05-20T16:59:07.442Z,31.86
2023-05-20T17:02:08.546Z,31.93
2023-05-20T17:05:09.495Z,31.84
2023-05-20T17:08:10.472Z,32.04
2023-05-20T17:11:12.425Z,31.99
2023-05-20T17:14:13.527Z,31.97
2023-05-20T17:17:15.483Z,32.01
2023-05-20T17:20:16.474Z,31.82
2023-05-20T17:23:17.445Z,32.04
2023-05-20T17:26:18.476Z,32.15
2023-05-20T17:29:19.418Z,32.15
2023-05-20T17:32:20.454Z,32.13
2023-05-20T17:35:21.515Z,31.85
2023-05-20T17:38:22.472Z,32.05
2023-05-20T17:41:24.449Z,31.86
2023-05-20T17:44:25.480Z,31.82
2023-05-20T17:47:26.484Z,31.86
2023-05-20T17:50:27.707Z,31.91
2023-05-20T17:53:28.436Z,31.82
2023-05-20T17:56:29.463Z,31.91
2023-05-20T17:59:30.453Z,31.97
2023-05-20T18:02:31.522Z,32.00
2023-05-20T18:05:32.430Z,32.07
2023-05-20T18:08:33.486Z,31.94
2023-05-20T18:11:34.425Z,31.93
2023-05-20T18:14:35.473Z,32.13
2023-05-20T18:17:37.982Z,32.05
2023-05-20T18:20:40.475Z,32.03
2023-05-20T18:23:41.412Z,31.96
2023-05-20T18:26:42.483Z,32.04
2023-05-20T18:29:43.411Z,32.14
2023-05-20T18:32:45.498Z,32.05
2023-05-20T18:35:46.419Z,32.10
2023-05-20T18:38:47.475Z,31.96
2023-05-20T18:41:48.415Z,32.00
2023-05-20T18:44:49.527Z,31.99
2023-05-20T18:47:50.464Z,32.01
2023-05-20T18:50:51.547Z,32.06
2023-05-20T18:53:52.404Z,31.96
2023-05-20T18:56:55.439Z,32.18
2023-05-20T18:59:56.404Z,32.03
2023-05-20T19:02:57.483Z,32.03
2023-05-20T19:05:58.553Z,32.10
2023-05-20T19:08:59.434Z,32.05
2023-05-20T19:12:03.436Z,32.01
2023-05-20T19:15:04.462Z,32.00
2023-05-20T19:18:05.476Z,31.92
2023-05-20T19:21:06.456Z,31.97
2023-05-20T19:24:07.402Z,31.88
2023-05-20T19:27:09.446Z,31.98
2023-05-20T19:30:11.224Z,31.83
2023-05-20T19:33:14.454Z,31.81
2023-05-20T19:36:15.407Z,31.99
2023-05-20T19:39:16.453Z,32.01
2023-05-20T19:42:17.404Z,31.93
2023-05-20T19:45:18.466Z,31.82
2023-05-20T19:48:21.998Z,31.88
2023-05-20T19:51:23.657Z,31.92
2023-05-20T19:54:24.377Z,31.89
2023-05-20T19:57:25.461Z,32.01
2023-05-20T20:00:26.391Z,32.07
2023-05-20T20:03:27.445Z,32.12
2023-05-20T20:06:28.475Z,32.25
2023-05-20T20:09:29.500Z,32.20
2023-05-20T20:12:30.409Z,32.02
2023-05-20T20:15:31.731Z,32.12
2023-05-20T20:18:32.409Z,32.23
2023-05-20T20:21:33.438Z,32.20
2023-05-20T20:24:34.407Z,32.19
2023-05-20T20:27:35.442Z,31.98
2023-05-20T20:30:36.402Z,32.16
2023-05-20T20:33:37.412Z,32.20
2023-05-20T20:36:38.411Z,32.14
2023-05-20T20:39:39.427Z,32.01
2023-05-20T20:42:41.374Z,32.25
2023-05-20T20:45:44.428Z,32.12
2023-05-20T20:48:45.480Z,32.08
2023-05-20T20:51:46.593Z,32.08
2023-05-20T20:54:47.411Z,31.89
2023-05-20T20:57:48.442Z,31.93
2023-05-20T21:00:51.477Z,31.91
2023-05-20T21:03:52.476Z,32.03
2023-05-20T21:06:53.376Z,32.05
2023-05-20T21:09:54.439Z,32.20
2023-05-20T21:12:55.384Z,32.08
2023-05-20T21:15:56.448Z,32.03
2023-05-20T21:18:57.396Z,32.02
2023-05-20T21:21:58.445Z,32.06
2023-05-20T21:24:59.402Z,31.93
2023-05-20T21:28:00.423Z,32.02
2023-05-20T21:31:01.478Z,32.01
2023-05-20T21:34:02.446Z,32.10
2023-05-20T21:37:03.378Z,32.06
2023-05-20T21:40:04.429Z,31.71
2023-05-20T21:43:05.368Z,32.06
2023-05-20T21:46:06.452Z,31.91
2023-05-20T21:49:07.397Z,32.03
2023-05-20T21:52:08.603Z,31.93
2023-05-20T21:55:09.413Z,31.88
2023-05-20T21:58:10.410Z,31.82
2023-05-20T22:01:11.463Z,31.99
2023-05-20T22:04:13.461Z,31.89
2023-05-20T22:07:14.456Z,31.94
2023-05-20T22:10:20.462Z,31.88
2023-05-20T22:13:21.382Z,31.93
2023-05-20T22:16:23.473Z,31.90
2023-05-20T22:19:24.484Z,31.86
2023-05-20T22:22:25.447Z,31.84
2023-05-20T22:25:26.394Z,31.81
2023-05-20T22:28:27.443Z,31.86
2023-05-20T22:31:28.412Z,31.99
2023-05-20T22:34:29.463Z,31.78
2023-05-20T22:37:30.374Z,31.74
2023-05-20T22:40:31.452Z,31.69
2023-05-20T22:43:33.396Z,31.86
2023-05-20T22:46:34.496Z,31.79
2023-05-20T22:49:35.374Z,31.85
2023-05-20T22:52:36.595Z,31.71
2023-05-20T22:55:37.586Z,31.63
2023-05-20T22:58:46.431Z,31.85
2023-05-20T23:01:47.376Z,31.77
2023-05-20T23:04:48.474Z,31.94
2023-05-20T23:07:49.360Z,31.84
2023-05-20T23:10:50.424Z,31.68
2023-05-20T23:13:51.384Z,31.84
2023-05-20T23:16:52.427Z,31.89
2023-05-20T23:19:53.376Z,31.76
2023-05-20T23:22:54.401Z,31.92
2023-05-20T23:25:55.418Z,31.75
2023-05-20T23:28:56.403Z,32.00
2023-05-20T23:31:57.390Z,31.85
2023-05-20T23:34:59.427Z,31.82
2023-05-20T23:38:00.384Z,31.70
2023-05-20T23:41:01.405Z,31.88
2023-05-20T23:44:02.379Z,32.20
2023-05-20T23:47:03.412Z,31.96
2023-05-20T23:50:04.368Z,32.03
2023-05-20T23:53:05.481Z,31.89
2023-05-20T23:56:06.349Z,31.73
2023-05-20T23:59:07.415Z,31.89
